createdAt,value
2022-09-21T00:01:23.980Z,3.67
2022-09-21T00:03:55.622Z,3.60
2022-09-21T00:06:24.570Z,3.42
2022-09-21T00:08:52.600Z,3.25
2022-09-21T00:11:25.051Z,3.58
2022-09-21T00:13:54.242Z,3.60
2022-09-21T00:16:21.327Z,3.53
2022-09-21T00:18:48.481Z,3.30
2022-09-21T00:21:16.502Z,3.25
2022-09-21T00:23:44.199Z,3.28
2022-09-21T00:26:21.004Z,3.03
2022-09-21T00:28:51.468Z,2.85
2022-09-21T00:31:18.727Z,3.80
2022-09-21T00:33:45.731Z,3.40
2022-09-21T00:36:16.579Z,3.55
2022-09-21T00:38:44.197Z,3.33
2022-09-21T00:41:12.322Z,3.38
2022-09-21T00:44:08.107Z,3.83
2022-09-21T00:46:37.086Z,3.50
2022-09-21T00:49:03.776Z,3.60
2022-09-21T00:51:30.824Z,3.20
2022-09-21T00:54:14.750Z,3.30
2022-09-21T00:56:43.374Z,3.58
2022-09-21T00:59:10.558Z,3.25
2022-09-21T01:01:38.396Z,3.10
2022-09-21T01:04:07.044Z,3.40
2022-09-21T01:06:36.928Z,3.50
2022-09-21T01:09:03.846Z,3.10
2022-09-21T01:12:16.054Z,3.30
2022-09-21T01:14:42.663Z,2.95
2022-09-21T01:17:18.622Z,3.13
2022-09-21T01:20:13.082Z,3.22
2022-09-21T01:22:58.577Z,3.67
2022-09-21T01:25:34.095Z,3.20
2022-09-21T01:28:29.252Z,3.30
2022-09-21T01:31:00.625Z,3.38
2022-09-21T01:33:31.546Z,2.60
2022-09-21T01:36:04.132Z,3.00
2022-09-21T01:38:38.078Z,3.47
2022-09-21T01:41:08.046Z,3.08
2022-09-21T01:43:39.586Z,3.00
2022-09-21T01:46:10.860Z,3.45
2022-09-21T01:48:41.890Z,3.10
2022-09-21T01:51:12.245Z,3.13
2022-09-21T01:53:47.539Z,3.10
2022-09-21T01:56:18.618Z,3.20
2022-09-21T01:59:06.701Z,3.25
2022-09-21T02:01:44.528Z,3.13
2022-09-21T02:04:13.540Z,3.15
2022-09-21T02:06:43.621Z,3.13
2022-09-21T02:09:11.203Z,2.95
2022-09-21T02:11:38.976Z,3.37
2022-09-21T02:14:10.335Z,3.38
2022-09-21T02:16:40.094Z,2.93
2022-09-21T02:19:15.997Z,3.10
2022-09-21T02:21:54.608Z,3.70
2022-09-21T02:24:35.478Z,3.20
2022-09-21T02:27:26.078Z,3.50
2022-09-21T02:30:01.828Z,3.10
2022-09-21T02:32:36.075Z,3.47
2022-09-21T02:35:17.247Z,3.37
2022-09-21T02:37:56.687Z,3.87
2022-09-21T02:40:33.428Z,5.27
2022-09-21T02:43:06.092Z,7.40
2022-09-21T02:45:42.520Z,4.87
2022-09-21T02:48:14.414Z,4.20
2022-09-21T02:50:57.210Z,3.60
2022-09-21T02:53:37.022Z,4.10
2022-09-21T02:56:07.295Z,3.93
2022-09-21T02:58:59.801Z,3.63
2022-09-21T03:01:27.893Z,3.17
2022-09-21T03:03:55.077Z,3.47
2022-09-21T03:06:21.898Z,3.30
2022-09-21T03:08:48.814Z,3.83
2022-09-21T03:11:19.819Z,3.33
2022-09-21T03:13:46.722Z,3.37
2022-09-21T03:16:13.659Z,4.17
2022-09-21T03:18:41.885Z,2.70
2022-09-21T03:21:08.759Z,3.30
2022-09-21T03:23:35.463Z,3.40
2022-09-21T03:26:02.533Z,3.30
2022-09-21T03:28:29.184Z,3.83
2022-09-21T03:30:55.887Z,3.57
2022-09-21T03:33:22.563Z,3.13
2022-09-21T03:35:49.676Z,3.50
2022-09-21T03:38:16.849Z,3.00
2022-09-21T03:40:48.059Z,3.50
2022-09-21T03:43:15.421Z,2.77
2022-09-21T03:45:42.671Z,3.20
2022-09-21T03:48:10.984Z,3.07
2022-09-21T03:50:38.656Z,3.10
2022-09-21T03:53:05.814Z,3.10
2022-09-21T03:55:34.292Z,2.80
2022-09-21T03:58:00.960Z,3.10
2022-09-21T04:00:28.557Z,2.83
2022-09-21T04:02:55.614Z,2.83
2022-09-21T04:05:22.955Z,3.43
2022-09-21T04:07:50.093Z,3.03
2022-09-21T04:10:19.743Z,3.23
2022-09-21T04:12:47.244Z,3.87
2022-09-21T04:15:23.362Z,3.10
2022-09-21T04:17:54.170Z,3.27
2022-09-21T04:20:21.786Z,3.67
2022-09-21T04:22:48.553Z,3.60
2022-09-21T04:25:16.021Z,3.40
2022-09-21T04:27:42.747Z,3.50
2022-09-21T04:30:12.141Z,3.57
2022-09-21T04:32:39.310Z,3.43
2022-09-21T04:35:06.308Z,3.70
2022-09-21T04:37:32.972Z,3.43
2022-09-21T04:39:59.765Z,3.30
2022-09-21T04:42:27.582Z,3.40
2022-09-21T04:44:54.318Z,3.13
2022-09-21T04:47:23.596Z,3.00
2022-09-21T04:49:50.446Z,3.27
2022-09-21T04:52:19.109Z,3.63
2022-09-21T04:54:46.711Z,3.27
2022-09-21T04:57:14.642Z,3.00
2022-09-21T04:59:41.347Z,3.13
2022-09-21T05:02:08.023Z,3.20
2022-09-21T05:04:34.705Z,4.17
2022-09-21T05:07:01.399Z,6.47
2022-09-21T05:09:46.750Z,7.37
2022-09-21T05:12:13.410Z,4.10
2022-09-21T05:14:40.985Z,3.50
2022-09-21T05:17:07.660Z,4.53
2022-09-21T05:19:34.427Z,4.60
2022-09-21T05:22:01.152Z,5.00
2022-09-21T05:24:27.830Z,5.60
2022-09-21T05:26:54.436Z,6.23
2022-09-21T05:29:21.436Z,6.33
2022-09-21T05:31:50.422Z,7.47
2022-09-21T05:34:38.993Z,6.83
2022-09-21T05:37:08.714Z,6.93
2022-09-21T05:39:35.869Z,7.60
2022-09-21T05:42:03.060Z,8.30
2022-09-21T05:44:29.936Z,6.63
2022-09-21T05:47:07.860Z,5.77
2022-09-21T05:49:37.596Z,5.13
2022-09-21T05:52:20.203Z,4.10
2022-09-21T05:55:00.566Z,4.00
2022-09-21T05:57:41.055Z,4.10
2022-09-21T06:00:20.865Z,4.70
2022-09-21T06:03:18.166Z,4.53
2022-09-21T06:05:46.418Z,4.30
2022-09-21T06:08:13.226Z,4.60
2022-09-21T06:10:39.855Z,7.83
2022-09-21T06:13:06.598Z,4.27
2022-09-21T06:15:38.476Z,4.33
2022-09-21T06:18:06.907Z,4.30
2022-09-21T06:20:33.655Z,4.43
2022-09-21T06:23:04.635Z,4.70
2022-09-21T06:25:31.362Z,4.53
2022-09-21T06:28:05.910Z,4.50
2022-09-21T06:30:34.988Z,4.43
2022-09-21T06:33:03.059Z,4.67
2022-09-21T06:35:30.906Z,4.17
2022-09-21T06:38:06.654Z,4.90
2022-09-21T06:40:35.695Z,5.03
2022-09-21T06:43:04.078Z,4.67
2022-09-21T06:45:31.191Z,4.93
2022-09-21T06:47:57.890Z,5.00
2022-09-21T06:50:25.084Z,5.20
2022-09-21T06:52:51.723Z,5.23
2022-09-21T06:55:18.457Z,5.57
2022-09-21T06:57:46.770Z,5.23
2022-09-21T07:00:14.652Z,5.43
2022-09-21T07:02:45.567Z,6.07
2022-09-21T07:05:13.133Z,5.00
2022-09-21T07:07:40.417Z,5.87
2022-09-21T07:10:13.275Z,5.50
2022-09-21T07:12:41.685Z,5.43
2022-09-21T07:15:10.287Z,5.67
2022-09-21T07:17:39.494Z,5.50
2022-09-21T07:20:07.947Z,5.73
2022-09-21T07:22:35.805Z,5.83
2022-09-21T07:25:04.251Z,5.93
2022-09-21T07:27:32.373Z,6.10
2022-09-21T07:29:59.245Z,6.20
2022-09-21T07:32:26.195Z,6.33
2022-09-21T07:34:57.234Z,6.30
2022-09-21T07:37:25.275Z,6.40
2022-09-21T07:39:52.940Z,6.20
2022-09-21T07:42:21.837Z,6.37
2022-09-21T07:44:50.235Z,6.10
2022-09-21T07:47:17.959Z,6.40
2022-09-21T07:49:46.595Z,6.17
2022-09-21T07:52:13.717Z,5.90
2022-09-21T07:54:40.363Z,5.30
2022-09-21T07:57:25.929Z,5.87
2022-09-21T07:59:52.569Z,5.35
2022-09-21T08:02:19.265Z,5.57
2022-09-21T08:04:46.175Z,5.40
2022-09-21T08:07:13.268Z,5.70
2022-09-21T08:09:40.851Z,5.70
2022-09-21T08:12:08.917Z,5.28
2022-09-21T08:14:36.342Z,5.00
2022-09-21T08:17:03.137Z,5.47
2022-09-21T08:19:29.835Z,5.30
2022-09-21T08:21:58.049Z,5.43
2022-09-21T08:24:26.779Z,5.32
2022-09-21T08:26:55.713Z,5.05
2022-09-21T08:29:23.250Z,5.13
2022-09-21T08:31:50.144Z,4.68
2022-09-21T08:34:16.889Z,4.25
2022-09-21T08:36:44.005Z,4.75
2022-09-21T08:39:10.744Z,4.97
2022-09-21T08:41:43.406Z,5.35
2022-09-21T08:44:24.028Z,4.50
2022-09-21T08:47:11.494Z,4.65
2022-09-21T08:49:40.746Z,4.35
2022-09-21T08:52:15.675Z,4.75
2022-09-21T08:54:53.869Z,4.32
2022-09-21T08:57:23.000Z,4.25
2022-09-21T08:59:50.443Z,4.43
2022-09-21T09:02:35.523Z,4.20
2022-09-21T09:05:26.964Z,4.80
2022-09-21T09:08:19.351Z,4.32
2022-09-21T09:10:58.915Z,4.18
2022-09-21T09:13:31.480Z,4.10
2022-09-21T09:15:58.158Z,4.20
2022-09-21T09:18:51.378Z,3.78
2022-09-21T09:21:38.238Z,3.95
2022-09-21T09:24:19.563Z,4.10
2022-09-21T09:26:52.902Z,4.28
2022-09-21T09:29:22.275Z,4.10
2022-09-21T09:31:52.119Z,4.15
2022-09-21T09:34:24.951Z,3.95
2022-09-21T09:36:59.898Z,4.05
2022-09-21T09:39:30.169Z,4.10
2022-09-21T09:42:17.067Z,4.63
2022-09-21T09:45:01.896Z,3.97
2022-09-21T09:47:36.610Z,4.15
2022-09-21T09:50:03.285Z,3.85
2022-09-21T09:52:31.508Z,3.58
2022-09-21T09:55:00.053Z,3.50
2022-09-21T09:57:32.113Z,3.75
2022-09-21T10:00:08.960Z,3.97
2022-09-21T10:03:08.294Z,3.47
2022-09-21T10:05:38.555Z,3.03
2022-09-21T10:08:05.286Z,2.92
2022-09-21T10:10:33.840Z,2.95
2022-09-21T10:13:26.945Z,2.70
2022-09-21T10:16:00.463Z,2.67
2022-09-21T10:18:43.852Z,2.55
2022-09-21T10:21:24.636Z,2.00
2022-09-21T10:24:00.061Z,2.60
2022-09-21T10:26:42.017Z,2.53
2022-09-21T10:29:23.858Z,2.63
2022-09-21T10:32:26.917Z,2.67
2022-09-21T10:35:15.781Z,2.22
2022-09-21T10:37:48.743Z,2.03
2022-09-21T10:40:21.008Z,2.10
2022-09-21T10:43:00.432Z,2.20
2022-09-21T10:45:32.407Z,2.78
2022-09-21T10:48:08.982Z,3.10
2022-09-21T10:50:43.097Z,3.28
2022-09-21T10:53:09.748Z,2.17
2022-09-21T10:55:58.465Z,2.70
2022-09-21T10:58:35.430Z,1.85
2022-09-21T11:01:20.741Z,2.03
2022-09-21T11:04:00.439Z,2.03
2022-09-21T11:06:39.151Z,1.98
2022-09-21T11:09:18.221Z,2.25
2022-09-21T11:12:08.541Z,1.90
2022-09-21T11:14:45.900Z,3.00
2022-09-21T11:17:39.373Z,2.13
2022-09-21T11:20:14.217Z,2.22
2022-09-21T11:23:01.995Z,2.22
2022-09-21T11:25:43.630Z,1.90
2022-09-21T11:28:19.548Z,2.17
2022-09-21T11:30:58.750Z,2.03
2022-09-21T11:33:55.664Z,1.95
2022-09-21T11:36:46.881Z,1.65
2022-09-21T11:39:59.996Z,1.80
2022-09-21T11:42:45.334Z,1.75
2022-09-21T11:45:50.597Z,1.90
2022-09-21T11:48:42.974Z,1.55
2022-09-21T11:51:24.038Z,1.65
2022-09-21T11:54:25.596Z,2.03
2022-09-21T11:57:19.050Z,1.33
2022-09-21T12:00:04.741Z,1.95
2022-09-21T12:02:41.290Z,1.63
2022-09-21T12:05:26.909Z,1.70
2022-09-21T12:08:31.208Z,1.20
2022-09-21T12:11:21.710Z,1.50
2022-09-21T12:14:25.696Z,1.50
2022-09-21T12:17:00.004Z,1.40
2022-09-21T12:19:40.018Z,1.30
2022-09-21T12:22:17.328Z,1.30
2022-09-21T12:24:53.160Z,1.50
2022-09-21T12:27:31.583Z,1.20
2022-09-21T12:30:13.364Z,1.20
2022-09-21T12:32:53.215Z,1.50
2022-09-21T12:35:40.205Z,1.10
2022-09-21T12:38:25.951Z,1.23
2022-09-21T12:41:05.230Z,1.17
2022-09-21T12:43:55.579Z,1.40
2022-09-21T12:46:25.690Z,1.20
2022-09-21T12:48:53.097Z,1.10
2022-09-21T12:51:29.598Z,0.90
2022-09-21T12:54:00.503Z,1.20
2022-09-21T12:57:23.823Z,1.20
2022-09-21T13:00:10.832Z,0.60
2022-09-21T13:02:49.922Z,0.90
2022-09-21T13:05:40.650Z,1.10
2022-09-21T13:08:25.456Z,1.20
2022-09-21T13:11:00.872Z,1.10
2022-09-21T13:13:38.430Z,1.23
2022-09-21T13:16:24.587Z,0.85
2022-09-21T13:19:00.209Z,0.80
2022-09-21T13:21:31.271Z,1.20
2022-09-21T13:24:03.575Z,1.25
2022-09-21T13:26:55.302Z,1.10
2022-09-21T13:29:22.208Z,1.10
2022-09-21T13:32:14.017Z,0.90
2022-09-21T13:34:42.742Z,0.90
2022-09-21T13:37:14.053Z,0.80
2022-09-21T13:40:01.643Z,1.10
2022-09-21T13:42:49.169Z,0.90
2022-09-21T13:45:17.875Z,0.98
2022-09-21T13:47:47.214Z,0.60
2022-09-21T13:50:44.582Z,0.90
2022-09-21T13:53:35.807Z,0.80
2022-09-21T13:56:16.702Z,0.80
2022-09-21T13:58:46.931Z,1.10
2022-09-21T14:01:42.608Z,0.70
2022-09-21T14:04:48.376Z,1.00
2022-09-21T14:07:15.134Z,0.70
2022-09-21T14:09:53.680Z,0.75
2022-09-21T14:12:25.131Z,0.70
2022-09-21T14:15:32.310Z,0.70
2022-09-21T14:18:17.131Z,1.00
2022-09-21T14:21:19.725Z,0.93
2022-09-21T14:24:16.935Z,1.15
2022-09-21T14:26:43.720Z,0.80
2022-09-21T14:29:28.018Z,1.20
2022-09-21T14:31:58.668Z,0.70
2022-09-21T14:34:35.559Z,0.70
2022-09-21T14:37:06.253Z,1.05
2022-09-21T14:39:40.914Z,0.70
2022-09-21T14:42:17.264Z,0.75
2022-09-21T14:44:44.683Z,0.70
2022-09-21T14:47:25.432Z,0.82
2022-09-21T14:50:04.070Z,0.90
2022-09-21T14:52:57.357Z,0.70
2022-09-21T14:55:33.411Z,0.75
2022-09-21T14:58:29.472Z,0.50
2022-09-21T15:00:58.881Z,0.63
2022-09-21T15:03:48.889Z,0.70
2022-09-21T15:06:38.209Z,0.50
2022-09-21T15:09:51.716Z,0.80
2022-09-21T15:12:22.934Z,0.82
2022-09-21T15:15:20.316Z,0.60
2022-09-21T15:17:59.711Z,0.77
2022-09-21T15:20:29.859Z,0.70
2022-09-21T15:22:58.449Z,0.80
2022-09-21T15:25:28.049Z,0.65
2022-09-21T15:27:55.163Z,1.40
2022-09-21T15:30:26.154Z,0.50
2022-09-21T15:32:56.072Z,0.55
2022-09-21T15:35:24.205Z,1.02
2022-09-21T15:37:51.780Z,1.02
2022-09-21T15:40:33.175Z,0.60
2022-09-21T15:43:20.927Z,0.80
2022-09-21T15:46:04.272Z,0.50
2022-09-21T15:48:42.101Z,0.77
2022-09-21T15:51:23.507Z,0.70
2022-09-21T15:53:55.840Z,0.68
2022-09-21T15:56:26.012Z,0.60
2022-09-21T15:59:07.759Z,0.50
2022-09-21T16:01:44.223Z,0.70
2022-09-21T16:04:23.337Z,0.70
2022-09-21T16:07:04.114Z,0.50
2022-09-21T16:09:40.790Z,0.68
2022-09-21T16:12:37.786Z,0.60
2022-09-21T16:15:29.106Z,0.98
2022-09-21T16:17:58.729Z,0.93
2022-09-21T16:20:50.610Z,0.57
2022-09-21T16:23:24.254Z,1.10
2022-09-21T16:26:00.706Z,0.70
2022-09-21T16:28:29.376Z,0.85
2022-09-21T16:30:58.941Z,0.90
2022-09-21T16:33:44.002Z,5.68
2022-09-21T16:36:20.090Z,2.00
2022-09-21T16:38:55.793Z,1.40
2022-09-21T16:41:24.833Z,1.48
2022-09-21T16:43:52.070Z,1.20
2022-09-21T16:46:18.938Z,0.70
2022-09-21T16:48:45.659Z,1.20
2022-09-21T16:51:14.384Z,0.93
2022-09-21T16:53:41.401Z,0.82
2022-09-21T16:56:15.320Z,0.98
2022-09-21T16:58:45.754Z,0.77
2022-09-21T17:01:15.443Z,0.90
2022-09-21T17:03:42.590Z,0.82
2022-09-21T17:06:17.344Z,0.93
2022-09-21T17:08:48.167Z,0.80
2022-09-21T17:11:19.791Z,0.75
2022-09-21T17:13:50.508Z,1.08
2022-09-21T17:16:19.403Z,0.95
2022-09-21T17:18:47.643Z,1.23
2022-09-21T17:21:15.556Z,1.73
2022-09-21T17:23:42.640Z,1.58
2022-09-21T17:26:21.134Z,2.75
2022-09-21T17:28:48.176Z,2.60
2022-09-21T17:31:21.028Z,3.20
2022-09-21T17:33:50.296Z,3.50
2022-09-21T17:36:18.405Z,3.45
2022-09-21T17:38:45.434Z,2.80
2022-09-21T17:41:25.657Z,3.60
2022-09-21T17:44:34.620Z,6.50
2022-09-21T17:47:05.649Z,5.40
2022-09-21T17:49:32.420Z,5.38
2022-09-21T17:52:17.596Z,2.35
2022-09-21T17:54:45.019Z,1.40
2022-09-21T17:57:40.578Z,1.15
2022-09-21T18:00:16.358Z,1.20
2022-09-21T18:02:43.546Z,0.77
2022-09-21T18:05:24.834Z,0.95
2022-09-21T18:07:52.424Z,0.90
2022-09-21T18:10:25.903Z,1.17
2022-09-21T18:13:01.477Z,0.80
2022-09-21T18:15:46.778Z,1.75
2022-09-21T18:18:20.224Z,1.30
2022-09-21T18:21:02.333Z,0.90
2022-09-21T18:23:47.793Z,0.80
2022-09-21T18:26:16.478Z,1.10
2022-09-21T18:28:45.987Z,0.90
2022-09-21T18:31:32.469Z,0.80
2022-09-21T18:34:22.228Z,0.98
2022-09-21T18:37:12.927Z,0.68
2022-09-21T18:40:38.145Z,0.75
2022-09-21T18:43:18.959Z,0.88
2022-09-21T18:46:01.956Z,0.70
2022-09-21T18:49:00.517Z,0.77
2022-09-21T18:51:45.928Z,0.68
2022-09-21T18:54:23.447Z,0.80
2022-09-21T18:56:50.456Z,0.90
2022-09-21T18:59:17.785Z,1.10
2022-09-21T19:01:46.973Z,1.10
2022-09-21T19:04:14.890Z,1.00
2022-09-21T19:07:13.685Z,0.88
2022-09-21T19:09:44.369Z,0.75
2022-09-21T19:12:41.885Z,0.80
2022-09-21T19:15:14.520Z,0.82
2022-09-21T19:17:49.936Z,1.17
2022-09-21T19:20:29.179Z,0.90
2022-09-21T19:23:25.094Z,1.40
2022-09-21T19:25:56.778Z,1.70
2022-09-21T19:28:32.638Z,1.27
2022-09-21T19:31:07.794Z,1.17
2022-09-21T19:33:51.157Z,0.98
2022-09-21T19:36:19.211Z,1.10
2022-09-21T19:38:46.243Z,0.98
2022-09-21T19:41:40.437Z,0.75
2022-09-21T19:44:34.591Z,1.02
2022-09-21T19:47:23.981Z,0.75
2022-09-21T19:49:56.065Z,1.23
2022-09-21T19:52:31.721Z,1.20
2022-09-21T19:55:17.431Z,1.08
2022-09-21T19:58:03.248Z,1.50
2022-09-21T20:00:31.250Z,2.40
2022-09-21T20:03:33.972Z,2.20
2022-09-21T20:06:07.315Z,2.00
2022-09-21T20:08:52.111Z,2.35
2022-09-21T20:11:29.087Z,1.88
2022-09-21T20:14:35.514Z,2.38
2022-09-21T20:17:10.150Z,3.30
2022-09-21T20:19:48.839Z,2.00
2022-09-21T20:22:17.756Z,1.98
2022-09-21T20:24:54.267Z,2.65
2022-09-21T20:27:40.578Z,3.03
2022-09-21T20:30:13.063Z,2.15
2022-09-21T20:32:42.495Z,1.70
2022-09-21T20:35:24.395Z,1.80
2022-09-21T20:37:56.489Z,1.48
2022-09-21T20:40:26.805Z,1.40
2022-09-21T20:42:53.881Z,1.73
2022-09-21T20:45:20.719Z,2.60
2022-09-21T20:47:51.454Z,2.13
2022-09-21T20:50:19.101Z,2.30
2022-09-21T20:52:45.937Z,2.25
2022-09-21T20:55:17.201Z,2.30
2022-09-21T20:57:44.534Z,2.60
2022-09-21T21:00:13.959Z,1.75
2022-09-21T21:02:40.953Z,1.27
2022-09-21T21:05:08.774Z,1.85
2022-09-21T21:07:35.450Z,1.48
2022-09-21T21:10:02.584Z,1.63
2022-09-21T21:12:29.601Z,1.80
2022-09-21T21:14:58.462Z,1.80
2022-09-21T21:17:25.243Z,1.70
2022-09-21T21:19:52.136Z,1.75
2022-09-21T21:22:18.815Z,1.90
2022-09-21T21:24:45.682Z,1.45
2022-09-21T21:27:16.309Z,1.73
2022-09-21T21:29:50.135Z,1.88
2022-09-21T21:32:19.512Z,1.98
2022-09-21T21:34:46.449Z,2.03
2022-09-21T21:37:14.103Z,1.90
2022-09-21T21:39:40.767Z,1.80
2022-09-21T21:42:07.566Z,1.95
2022-09-21T21:44:34.387Z,1.80
2022-09-21T21:47:20.974Z,1.83
2022-09-21T21:49:48.374Z,1.88
2022-09-21T21:52:15.143Z,1.92
2022-09-21T21:54:41.771Z,1.60
2022-09-21T21:57:10.010Z,1.70
2022-09-21T21:59:37.062Z,1.70
2022-09-21T22:02:04.104Z,1.65
2022-09-21T22:04:30.907Z,1.58
2022-09-21T22:06:57.675Z,1.48
2022-09-21T22:09:24.396Z,1.58
2022-09-21T22:11:51.025Z,1.83
2022-09-21T22:14:18.491Z,1.63
2022-09-21T22:16:45.185Z,1.77
2022-09-21T22:19:12.046Z,1.73
2022-09-21T22:21:41.622Z,2.03
2022-09-21T22:24:09.274Z,1.80
2022-09-21T22:26:39.329Z,1.35
2022-09-21T22:29:07.969Z,1.80
2022-09-21T22:31:37.866Z,1.60
2022-09-21T22:34:05.653Z,2.50
2022-09-21T22:36:34.961Z,2.45
2022-09-21T22:39:02.188Z,2.85
2022-09-21T22:41:31.735Z,3.17
2022-09-21T22:43:59.453Z,3.28
2022-09-21T22:46:27.267Z,1.83
2022-09-21T22:48:53.922Z,1.80
2022-09-21T22:51:21.825Z,1.95
2022-09-21T22:53:49.879Z,1.95
2022-09-21T22:56:19.291Z,1.88
2022-09-21T22:58:48.428Z,2.03
2022-09-21T23:01:29.130Z,1.77
2022-09-21T23:03:59.472Z,2.00
2022-09-21T23:06:29.118Z,2.20
2022-09-21T23:08:57.127Z,2.10
2022-09-21T23:11:27.252Z,2.10
2022-09-21T23:13:55.247Z,1.73
2022-09-21T23:16:23.500Z,2.00
2022-09-21T23:18:50.953Z,2.05
2022-09-21T23:21:19.926Z,2.10
2022-09-21T23:23:46.899Z,2.17
2022-09-21T23:26:20.070Z,1.90
2022-09-21T23:28:52.023Z,2.20
2022-09-21T23:31:18.779Z,2.35
2022-09-21T23:33:48.162Z,2.13
2022-09-21T23:36:17.228Z,2.20
2022-09-21T23:38:45.405Z,1.90
2022-09-21T23:41:14.322Z,2.47
2022-09-21T23:43:42.463Z,2.45
2022-09-21T23:46:11.784Z,1.80
2022-09-21T23:48:39.181Z,2.60
2022-09-21T23:51:06.611Z,2.08
2022-09-21T23:53:34.330Z,2.10
2022-09-21T23:56:01.247Z,2.13
2022-09-21T23:58:28.301Z,2.40
